sensor_id;sensor_type;location;lat;lon;timestamp;pressure;altitude;pressure_sealevel;temperature;humidity
51829;BME280;37881;48.024;8.774;2023-03-01T00:01:20;94325.72;;;-2.61;100.00
51829;BME280;37881;48.024;8.774;2023-03-01T00:03:47;94325.56;;;-2.55;100.00
51829;BME280;37881;48.024;8.774;2023-03-01T00:06:15;94322.53;;;-2.54;100.00
51829;BME280;37881;48.024;8.774;2023-03-01T00:08:42;94318.75;;;-2.53;100.00
51829;BME280;37881;48.024;8.774;2023-03-01T00:11:27;94313.84;;;-2.51;100.00
51829;BME280;37881;48.024;8.774;2023-03-01T00:13:56;94319.38;;;-2.56;100.00
51829;BME280;37881;48.024;8.774;2023-03-01T00:16:29;94315.38;;;-2.41;100.00
51829;BME280;37881;48.024;8.774;2023-03-01T00:18:57;94316.00;;;-2.35;100.00
51829;BME280;37881;48.024;8.774;2023-03-01T00:21:25;94318.53;;;-2.39;100.00
51829;BME280;37881;48.024;8.774;2023-03-01T00:23:52;94316.56;;;-2.30;100.00
51829;BME280;37881;48.024;8.774;2023-03-01T00:26:21;94312.78;;;-2.29;100.00
51829;BME280;37881;48.024;8.774;2023-03-01T00:28:49;94303.72;;;-2.45;100.00
51829;BME280;37881;48.024;8.774;2023-03-01T00:31:18;94303.94;;;-2.29;100.00
51829;BME280;37881;48.024;8.774;2023-03-01T00:33:46;94303.81;;;-2.33;100.00
51829;BME280;37881;48.024;8.774;2023-03-01T00:36:14;94304.81;;;-2.16;100.00
51829;BME280;37881;48.024;8.774;2023-03-01T00:38:43;94301.59;;;-2.10;100.00
51829;BME280;37881;48.024;8.774;2023-03-01T00:41:15;94307.44;;;-2.08;100.00
51829;BME280;37881;48.024;8.774;2023-03-01T00:43:46;94296.84;;;-2.04;100.00
51829;BME280;37881;48.024;8.774;2023-03-01T00:46:18;94304.13;;;-2.05;100.00
51829;BME280;37881;48.024;8.774;2023-03-01T00:48:46;94303.13;;;-2.00;100.00
51829;BME280;37881;48.024;8.774;2023-03-01T00:51:24;94291.91;;;-2.02;100.00
51829;BME280;37881;48.024;8.774;2023-03-01T00:53:53;94289.50;;;-1.95;100.00
51829;BME280;37881;48.024;8.774;2023-03-01T00:56:21;94292.31;;;-1.91;100.00
51829;BME280;37881;48.024;8.774;2023-03-01T00:58:47;94296.44;;;-1.94;100.00
51829;BME280;37881;48.024;8.774;2023-03-01T01:01:20;94286.09;;;-1.83;100.00
51829;BME280;37881;48.024;8.774;2023-03-01T01:03:50;94284.38;;;-1.88;100.00
51829;BME280;37881;48.024;8.774;2023-03-01T01:06:35;94277.38;;;-1.80;100.00
51829;BME280;37881;48.024;8.774;2023-03-01T01:09:04;94278.03;;;-1.83;100.00
51829;BME280;37881;48.024;8.774;2023-03-01T01:11:31;94273.44;;;-1.83;100.00
51829;BME280;37881;48.024;8.774;2023-03-01T01:13:58;94263.59;;;-1.78;100.00
51829;BME280;37881;48.024;8.774;2023-03-01T01:16:26;94262.72;;;-1.70;100.00
51829;BME280;37881;48.024;8.774;2023-03-01T01:18:55;94263.06;;;-1.72;100.00
51829;BME280;37881;48.024;8.774;2023-03-01T01:21:23;94256.81;;;-1.64;100.00
51829;BME280;37881;48.024;8.774;2023-03-01T01:23:51;94257.59;;;-1.63;100.00
51829;BME280;37881;48.024;8.774;2023-03-01T01:26:20;94258.59;;;-1.68;100.00
51829;BME280;37881;48.024;8.774;2023-03-01T01:28:48;94254.44;;;-1.65;100.00
51829;BME280;37881;48.024;8.774;2023-03-01T01:31:15;94249.75;;;-1.68;100.00
51829;BME280;37881;48.024;8.774;2023-03-01T01:33:42;94245.41;;;-1.61;100.00
51829;BME280;37881;48.024;8.774;2023-03-01T01:36:09;94246.31;;;-1.56;100.00
51829;BME280;37881;48.024;8.774;2023-03-01T01:38:37;94247.25;;;-1.73;100.00
51829;BME280;37881;48.024;8.774;2023-03-01T01:41:05;94237.94;;;-1.76;100.00
51829;BME280;37881;48.024;8.774;2023-03-01T01:43:43;94237.66;;;-1.62;100.00
51829;BME280;37881;48.024;8.774;2023-03-01T01:46:25;94231.72;;;-1.55;100.00
51829;BME280;37881;48.024;8.774;2023-03-01T01:49:00;94225.25;;;-1.75;100.00
51829;BME280;37881;48.024;8.774;2023-03-01T01:51:32;94229.00;;;-1.68;100.00
51829;BME280;37881;48.024;8.774;2023-03-01T01:54:12;94218.72;;;-1.53;100.00
51829;BME280;37881;48.024;8.774;2023-03-01T01:56:43;94223.81;;;-1.73;100.00
51829;BME280;37881;48.024;8.774;2023-03-01T01:59:11;94215.59;;;-1.55;100.00
51829;BME280;37881;48.024;8.774;2023-03-01T02:01:38;94214.03;;;-1.56;100.00
51829;BME280;37881;48.024;8.774;2023-03-01T02:04:05;94214.59;;;-1.51;100.00
51829;BME280;37881;48.024;8.774;2023-03-01T02:06:42;94219.53;;;-1.53;100.00
51829;BME280;37881;48.024;8.774;2023-03-01T02:09:14;94211.00;;;-1.55;100.00
51829;BME280;37881;48.024;8.774;2023-03-01T02:11:43;94218.41;;;-1.52;100.00
51829;BME280;37881;48.024;8.774;2023-03-01T02:14:10;94214.81;;;-1.56;100.00
51829;BME280;37881;48.024;8.774;2023-03-01T02:16:37;94214.59;;;-1.51;100.00
51829;BME280;37881;48.024;8.774;2023-03-01T02:19:04;94210.56;;;-1.57;100.00
51829;BME280;37881;48.024;8.774;2023-03-01T02:24:10;94195.22;;;-1.44;100.00
51829;BME280;37881;48.024;8.774;2023-03-01T02:26:44;94196.31;;;-1.45;100.00
51829;BME280;37881;48.024;8.774;2023-03-01T02:29:12;94201.34;;;-1.56;100.00
51829;BME280;37881;48.024;8.774;2023-03-01T02:31:39;94204.72;;;-1.80;100.00
51829;BME280;37881;48.024;8.774;2023-03-01T02:34:13;94200.75;;;-1.62;100.00
51829;BME280;37881;48.024;8.774;2023-03-01T02:36:46;94204.19;;;-1.73;100.00
51829;BME280;37881;48.024;8.774;2023-03-01T02:39:26;94197.66;;;-1.51;100.00
51829;BME280;37881;48.024;8.774;2023-03-01T02:41:56;94194.47;;;-1.66;100.00
51829;BME280;37881;48.024;8.774;2023-03-01T02:44:24;94182.75;;;-1.49;100.00
51829;BME280;37881;48.024;8.774;2023-03-01T02:46:53;94182.63;;;-1.52;100.00
51829;BME280;37881;48.024;8.774;2023-03-01T02:49:30;94179.63;;;-1.51;100.00
51829;BME280;37881;48.024;8.774;2023-03-01T02:55:00;94176.16;;;-1.39;100.00
51829;BME280;37881;48.024;8.774;2023-03-01T02:57:28;94166.03;;;-1.54;100.00
51829;BME280;37881;48.024;8.774;2023-03-01T02:59:58;94163.81;;;-1.40;100.00
51829;BME280;37881;48.024;8.774;2023-03-01T03:02:29;94173.59;;;-1.35;100.00
51829;BME280;37881;48.024;8.774;2023-03-01T03:05:05;94166.63;;;-1.36;100.00
51829;BME280;37881;48.024;8.774;2023-03-01T03:07:36;94160.09;;;-1.48;100.00
51829;BME280;37881;48.024;8.774;2023-03-01T03:10:06;94162.66;;;-1.51;100.00
51829;BME280;37881;48.024;8.774;2023-03-01T03:12:33;94158.31;;;-1.44;100.00
51829;BME280;37881;48.024;8.774;2023-03-01T03:15:00;94154.03;;;-1.57;100.00
51829;BME280;37881;48.024;8.774;2023-03-01T03:17:27;94155.28;;;-1.42;100.00
51829;BME280;37881;48.024;8.774;2023-03-01T03:19:53;94163.72;;;-1.31;100.00
51829;BME280;37881;48.024;8.774;2023-03-01T03:22:20;94161.59;;;-1.26;100.00
51829;BME280;37881;48.024;8.774;2023-03-01T03:24:47;94158.03;;;-1.17;100.00
51829;BME280;37881;48.024;8.774;2023-03-01T03:27:13;94157.34;;;-1.27;100.00
51829;BME280;37881;48.024;8.774;2023-03-01T03:29:40;94157.81;;;-1.25;100.00
51829;BME280;37881;48.024;8.774;2023-03-01T03:32:07;94149.47;;;-1.32;100.00
51829;BME280;37881;48.024;8.774;2023-03-01T03:34:33;94155.06;;;-1.37;100.00
51829;BME280;37881;48.024;8.774;2023-03-01T03:37:00;94155.19;;;-1.79;100.00
51829;BME280;37881;48.024;8.774;2023-03-01T03:39:27;94151.97;;;-1.72;100.00
51829;BME280;37881;48.024;8.774;2023-03-01T03:42:01;94144.72;;;-1.47;100.00
51829;BME280;37881;48.024;8.774;2023-03-01T03:44:28;94142.72;;;-1.50;100.00
51829;BME280;37881;48.024;8.774;2023-03-01T03:46:55;94142.06;;;-1.35;100.00
51829;BME280;37881;48.024;8.774;2023-03-01T03:49:21;94142.75;;;-1.71;100.00
51829;BME280;37881;48.024;8.774;2023-03-01T03:51:48;94141.50;;;-1.41;100.00
51829;BME280;37881;48.024;8.774;2023-03-01T03:54:15;94137.56;;;-1.43;100.00
51829;BME280;37881;48.024;8.774;2023-03-01T03:56:41;94151.91;;;-1.51;100.00
51829;BME280;37881;48.024;8.774;2023-03-01T03:59:10;94150.50;;;-1.70;100.00
51829;BME280;37881;48.024;8.774;2023-03-01T04:01:37;94146.59;;;-1.72;100.00
51829;BME280;37881;48.024;8.774;2023-03-01T04:04:04;94142.28;;;-1.86;100.00
51829;BME280;37881;48.024;8.774;2023-03-01T04:06:31;94143.38;;;-1.53;100.00
51829;BME280;37881;48.024;8.774;2023-03-01T04:08:58;94133.31;;;-1.44;100.00
51829;BME280;37881;48.024;8.774;2023-03-01T04:11:28;94149.25;;;-1.85;100.00
51829;BME280;37881;48.024;8.774;2023-03-01T04:13:57;94134.88;;;-1.89;100.00
51829;BME280;37881;48.024;8.774;2023-03-01T04:16:24;94142.06;;;-1.81;100.00
51829;BME280;37881;48.024;8.774;2023-03-01T04:18:51;94131.53;;;-1.73;100.00
51829;BME280;37881;48.024;8.774;2023-03-01T04:21:20;94133.47;;;-1.62;100.00
51829;BME280;37881;48.024;8.774;2023-03-01T04:23:46;94135.41;;;-1.62;100.00
51829;BME280;37881;48.024;8.774;2023-03-01T04:26:13;94145.72;;;-1.64;100.00
51829;BME280;37881;48.024;8.774;2023-03-01T04:28:41;94136.66;;;-1.47;100.00
51829;BME280;37881;48.024;8.774;2023-03-01T04:31:13;94127.47;;;-1.46;100.00
51829;BME280;37881;48.024;8.774;2023-03-01T04:33:51;94125.94;;;-1.81;100.00
51829;BME280;37881;48.024;8.774;2023-03-01T04:36:20;94131.25;;;-1.59;100.00
51829;BME280;37881;48.024;8.774;2023-03-01T04:38:48;94128.50;;;-1.84;100.00
51829;BME280;37881;48.024;8.774;2023-03-01T04:41:17;94133.63;;;-1.58;100.00
51829;BME280;37881;48.024;8.774;2023-03-01T04:43:45;94128.97;;;-1.70;100.00
51829;BME280;37881;48.024;8.774;2023-03-01T04:46:14;94128.53;;;-1.72;100.00
51829;BME280;37881;48.024;8.774;2023-03-01T04:48:42;94118.47;;;-1.63;100.00
51829;BME280;37881;48.024;8.774;2023-03-01T04:51:10;94121.00;;;-1.78;100.00
51829;BME280;37881;48.024;8.774;2023-03-01T04:53:40;94119.06;;;-1.90;100.00
51829;BME280;37881;48.024;8.774;2023-03-01T04:56:07;94128.31;;;-2.00;100.00
51829;BME280;37881;48.024;8.774;2023-03-01T04:58:34;94126.91;;;-1.85;100.00
51829;BME280;37881;48.024;8.774;2023-03-01T05:01:01;94115.06;;;-1.72;100.00
51829;BME280;37881;48.024;8.774;2023-03-01T05:03:27;94111.63;;;-1.60;100.00
51829;BME280;37881;48.024;8.774;2023-03-01T05:05:58;94123.63;;;-1.57;100.00
51829;BME280;37881;48.024;8.774;2023-03-01T05:08:26;94117.72;;;-2.17;100.00
51829;BME280;37881;48.024;8.774;2023-03-01T05:10:53;94101.44;;;-2.00;100.00
51829;BME280;37881;48.024;8.774;2023-03-01T05:13:21;94115.63;;;-1.78;100.00
51829;BME280;37881;48.024;8.774;2023-03-01T05:15:55;94112.41;;;-1.59;100.00
51829;BME280;37881;48.024;8.774;2023-03-01T05:18:26;94109.25;;;-1.62;100.00
51829;BME280;37881;48.024;8.774;2023-03-01T05:20:55;94105.59;;;-1.57;100.00
51829;BME280;37881;48.024;8.774;2023-03-01T05:23:25;94108.59;;;-1.71;100.00
51829;BME280;37881;48.024;8.774;2023-03-01T05:25:51;94109.66;;;-1.84;100.00
51829;BME280;37881;48.024;8.774;2023-03-01T05:28:19;94109.00;;;-1.81;100.00
51829;BME280;37881;48.024;8.774;2023-03-01T05:30:46;94100.66;;;-2.01;100.00
51829;BME280;37881;48.024;8.774;2023-03-01T05:33:14;94097.75;;;-1.95;100.00
51829;BME280;37881;48.024;8.774;2023-03-01T05:35:43;94102.25;;;-1.87;100.00
51829;BME280;37881;48.024;8.774;2023-03-01T05:38:11;94103.47;;;-1.97;100.00
51829;BME280;37881;48.024;8.774;2023-03-01T05:40:45;94103.25;;;-1.92;100.00
51829;BME280;37881;48.024;8.774;2023-03-01T05:43:14;94102.38;;;-1.84;100.00
51829;BME280;37881;48.024;8.774;2023-03-01T05:45:41;94107.34;;;-1.73;100.00
51829;BME280;37881;48.024;8.774;2023-03-01T05:48:09;94101.50;;;-1.75;100.00
51829;BME280;37881;48.024;8.774;2023-03-01T05:50:39;94099.28;;;-1.61;100.00
51829;BME280;37881;48.024;8.774;2023-03-01T05:53:16;94097.00;;;-1.84;100.00
51829;BME280;37881;48.024;8.774;2023-03-01T05:55:44;94097.09;;;-1.92;100.00
51829;BME280;37881;48.024;8.774;2023-03-01T05:58:19;94102.25;;;-1.87;100.00
51829;BME280;37881;48.024;8.774;2023-03-01T06:00:47;94102.97;;;-1.78;100.00
51829;BME280;37881;48.024;8.774;2023-03-01T06:03:16;94108.22;;;-1.69;100.00
51829;BME280;37881;48.024;8.774;2023-03-01T06:05:43;94102.75;;;-2.06;100.00
51829;BME280;37881;48.024;8.774;2023-03-01T06:08:11;94097.97;;;-2.01;100.00
51829;BME280;37881;48.024;8.774;2023-03-01T06:10:38;94087.72;;;-1.74;100.00
51829;BME280;37881;48.024;8.774;2023-03-01T06:13:05;94091.16;;;-1.86;100.00
51829;BME280;37881;48.024;8.774;2023-03-01T06:15:32;94094.75;;;-1.82;100.00
51829;BME280;37881;48.024;8.774;2023-03-01T06:17:59;94094.03;;;-2.03;100.00
51829;BME280;37881;48.024;8.774;2023-03-01T06:20:28;94094.88;;;-1.78;100.00
51829;BME280;37881;48.024;8.774;2023-03-01T06:22:55;94088.28;;;-1.68;100.00
51829;BME280;37881;48.024;8.774;2023-03-01T06:25:24;94091.34;;;-1.57;100.00
51829;BME280;37881;48.024;8.774;2023-03-01T06:27:51;94096.78;;;-1.78;100.00
51829;BME280;37881;48.024;8.774;2023-03-01T06:30:20;94106.00;;;-1.67;100.00
51829;BME280;37881;48.024;8.774;2023-03-01T06:32:49;94096.41;;;-1.89;100.00
51829;BME280;37881;48.024;8.774;2023-03-01T06:35:16;94097.69;;;-1.87;100.00
51829;BME280;37881;48.024;8.774;2023-03-01T06:37:45;94100.75;;;-1.64;100.00
51829;BME280;37881;48.024;8.774;2023-03-01T06:40:13;94101.53;;;-2.09;100.00
51829;BME280;37881;48.024;8.774;2023-03-01T06:42:42;94094.44;;;-1.80;100.00
51829;BME280;37881;48.024;8.774;2023-03-01T06:45:10;94104.88;;;-1.78;100.00
51829;BME280;37881;48.024;8.774;2023-03-01T06:47:37;94094.31;;;-2.17;100.00
51829;BME280;37881;48.024;8.774;2023-03-01T06:50:04;94101.25;;;-1.95;100.00
51829;BME280;37881;48.024;8.774;2023-03-01T06:52:31;94101.69;;;-1.93;100.00
51829;BME280;37881;48.024;8.774;2023-03-01T06:54:58;94099.97;;;-1.64;100.00
51829;BME280;37881;48.024;8.774;2023-03-01T06:57:25;94095.72;;;-1.53;100.00
51829;BME280;37881;48.024;8.774;2023-03-01T06:59:52;94094.41;;;-1.47;100.00
51829;BME280;37881;48.024;8.774;2023-03-01T07:02:19;94098.19;;;-1.60;100.00
51829;BME280;37881;48.024;8.774;2023-03-01T07:04:46;94100.66;;;-1.55;100.00
51829;BME280;37881;48.024;8.774;2023-03-01T07:07:12;94104.91;;;-1.54;100.00
51829;BME280;37881;48.024;8.774;2023-03-01T07:09:39;94107.50;;;-1.45;100.00
51829;BME280;37881;48.024;8.774;2023-03-01T07:12:06;94105.47;;;-1.61;100.00
51829;BME280;37881;48.024;8.774;2023-03-01T07:14:33;94091.47;;;-1.42;100.00
51829;BME280;37881;48.024;8.774;2023-03-01T07:16:59;94104.00;;;-1.70;100.00
51829;BME280;37881;48.024;8.774;2023-03-01T07:19:26;94082.00;;;-1.72;100.00
51829;BME280;37881;48.024;8.774;2023-03-01T07:21:53;94083.25;;;-1.57;100.00
51829;BME280;37881;48.024;8.774;2023-03-01T07:24:22;94083.84;;;-1.39;100.00
51829;BME280;37881;48.024;8.774;2023-03-01T07:26:49;94086.97;;;-1.37;100.00
51829;BME280;37881;48.024;8.774;2023-03-01T07:29:17;94086.19;;;-1.63;100.00
51829;BME280;37881;48.024;8.774;2023-03-01T07:31:44;94085.25;;;-1.79;100.00
51829;BME280;37881;48.024;8.774;2023-03-01T07:34:11;94079.66;;;-1.62;100.00
51829;BME280;37881;48.024;8.774;2023-03-01T07:36:38;94080.44;;;-1.61;100.00
51829;BME280;37881;48.024;8.774;2023-03-01T07:39:06;94083.34;;;-1.78;100.00
51829;BME280;37881;48.024;8.774;2023-03-01T07:41:32;94074.84;;;-1.56;100.00
51829;BME280;37881;48.024;8.774;2023-03-01T07:43:59;94071.84;;;-1.54;100.00
51829;BME280;37881;48.024;8.774;2023-03-01T07:46:26;94070.50;;;-1.48;100.00
51829;BME280;37881;48.024;8.774;2023-03-01T07:48:53;94067.47;;;-1.34;100.00
51829;BME280;37881;48.024;8.774;2023-03-01T07:51:20;94074.53;;;-1.42;100.00
51829;BME280;37881;48.024;8.774;2023-03-01T07:53:48;94067.56;;;-1.43;100.00
51829;BME280;37881;48.024;8.774;2023-03-01T07:56:15;94066.97;;;-1.73;100.00
51829;BME280;37881;48.024;8.774;2023-03-01T07:58:46;94068.56;;;-1.60;100.00
51829;BME280;37881;48.024;8.774;2023-03-01T08:01:17;94061.06;;;-1.54;100.00
51829;BME280;37881;48.024;8.774;2023-03-01T08:03:45;94048.38;;;-1.17;100.00
51829;BME280;37881;48.024;8.774;2023-03-01T08:06:13;94054.78;;;-1.22;100.00
51829;BME280;37881;48.024;8.774;2023-03-01T08:08:40;94062.66;;;-1.29;100.00
51829;BME280;37881;48.024;8.774;2023-03-01T08:11:09;94067.47;;;-1.22;100.00
51829;BME280;37881;48.024;8.774;2023-03-01T08:13:36;94057.81;;;-1.11;100.00
51829;BME280;37881;48.024;8.774;2023-03-01T08:16:05;94069.03;;;-0.84;100.00
51829;BME280;37881;48.024;8.774;2023-03-01T08:18:33;94061.75;;;-1.08;100.00
51829;BME280;37881;48.024;8.774;2023-03-01T08:21:08;94066.91;;;-1.15;100.00
51829;BME280;37881;48.024;8.774;2023-03-01T08:23:35;94063.00;;;-2.01;100.00
51829;BME280;37881;48.024;8.774;2023-03-01T08:26:06;94064.19;;;-1.77;100.00
51829;BME280;37881;48.024;8.774;2023-03-01T08:28:34;94065.31;;;-1.66;100.00
51829;BME280;37881;48.024;8.774;2023-03-01T08:31:01;94056.25;;;-1.12;100.00
51829;BME280;37881;48.024;8.774;2023-03-01T08:33:28;94064.66;;;-1.50;100.00
51829;BME280;37881;48.024;8.774;2023-03-01T08:36:05;94055.63;;;-1.91;100.00
51829;BME280;37881;48.024;8.774;2023-03-01T08:38:34;94050.63;;;-1.56;100.00
51829;BME280;37881;48.024;8.774;2023-03-01T08:41:02;94059.75;;;-1.94;100.00
51829;BME280;37881;48.024;8.774;2023-03-01T08:43:30;94050.75;;;-1.52;100.00
51829;BME280;37881;48.024;8.774;2023-03-01T08:45:56;94059.06;;;-1.21;100.00
51829;BME280;37881;48.024;8.774;2023-03-01T08:48:23;94049.72;;;-0.86;100.00
51829;BME280;37881;48.024;8.774;2023-03-01T08:50:50;94051.22;;;-0.61;100.00
51829;BME280;37881;48.024;8.774;2023-03-01T08:53:17;94055.16;;;-0.58;100.00
51829;BME280;37881;48.024;8.774;2023-03-01T08:55:43;94052.66;;;-0.51;100.00
51829;BME280;37881;48.024;8.774;2023-03-01T08:58:10;94052.66;;;-1.53;100.00
51829;BME280;37881;48.024;8.774;2023-03-01T09:00:38;94040.63;;;-0.94;100.00
51829;BME280;37881;48.024;8.774;2023-03-01T09:03:06;94038.31;;;-0.67;100.00
51829;BME280;37881;48.024;8.774;2023-03-01T09:05:33;94032.34;;;-1.13;100.00
51829;BME280;37881;48.024;8.774;2023-03-01T09:08:00;94044.84;;;-1.91;100.00
51829;BME280;37881;48.024;8.774;2023-03-01T09:10:27;94039.66;;;-1.51;100.00
51829;BME280;37881;48.024;8.774;2023-03-01T09:12:54;94031.31;;;-0.84;100.00
51829;BME280;37881;48.024;8.774;2023-03-01T09:15:20;94032.66;;;-0.50;100.00
51829;BME280;37881;48.024;8.774;2023-03-01T09:17:47;94036.41;;;-0.67;100.00
51829;BME280;37881;48.024;8.774;2023-03-01T09:20:14;94041.91;;;-1.41;100.00
51829;BME280;37881;48.024;8.774;2023-03-01T09:22:40;94039.06;;;-0.95;100.00
51829;BME280;37881;48.024;8.774;2023-03-01T09:25:07;94038.75;;;-1.18;100.00
51829;BME280;37881;48.024;8.774;2023-03-01T09:27:34;94050.06;;;-1.00;100.00
51829;BME280;37881;48.024;8.774;2023-03-01T09:30:01;94043.06;;;-0.64;100.00
51829;BME280;37881;48.024;8.774;2023-03-01T09:32:30;94042.72;;;-0.34;100.00
51829;BME280;37881;48.024;8.774;2023-03-01T09:34:57;94042.44;;;-0.17;100.00
51829;BME280;37881;48.024;8.774;2023-03-01T09:37:36;94035.03;;;-0.61;100.00
51829;BME280;37881;48.024;8.774;2023-03-01T09:40:06;94030.03;;;-0.06;100.00
51829;BME280;37881;48.024;8.774;2023-03-01T09:42:34;94022.50;;;-0.12;100.00
51829;BME280;37881;48.024;8.774;2023-03-01T09:45:10;94027.28;;;-0.22;100.00
51829;BME280;37881;48.024;8.774;2023-03-01T09:47:38;94032.13;;;-0.27;100.00
51829;BME280;37881;48.024;8.774;2023-03-01T09:50:16;94035.66;;;-0.39;100.00
51829;BME280;37881;48.024;8.774;2023-03-01T09:53:06;94020.22;;;0.34;99.93
51829;BME280;37881;48.024;8.774;2023-03-01T09:55:45;94014.13;;;0.53;97.95
51829;BME280;37881;48.024;8.774;2023-03-01T10:00:56;94021.69;;;0.15;97.38
51829;BME280;37881;48.024;8.774;2023-03-01T10:03:43;94010.56;;;0.65;97.61
51829;BME280;37881;48.024;8.774;2023-03-01T10:06:19;94010.88;;;0.95;94.11
51829;BME280;37881;48.024;8.774;2023-03-01T10:09:13;94020.13;;;0.62;93.55
51829;BME280;37881;48.024;8.774;2023-03-01T10:11:51;94020.97;;;0.03;97.81
51829;BME280;37881;48.024;8.774;2023-03-01T10:14:43;94027.72;;;0.41;96.16
51829;BME280;37881;48.024;8.774;2023-03-01T10:17:34;94024.22;;;0.40;96.20
51829;BME280;37881;48.024;8.774;2023-03-01T10:22:48;94013.00;;;0.54;97.55
51829;BME280;37881;48.024;8.774;2023-03-01T10:25:36;94007.78;;;0.96;93.25
51829;BME280;37881;48.024;8.774;2023-03-01T10:30:51;94001.78;;;1.03;91.65
51829;BME280;37881;48.024;8.774;2023-03-01T10:33:29;94004.78;;;-0.42;100.00
51829;BME280;37881;48.024;8.774;2023-03-01T10:35:57;94000.44;;;0.30;98.47
51829;BME280;37881;48.024;8.774;2023-03-01T10:38:24;94010.78;;;-0.32;98.94
51829;BME280;37881;48.024;8.774;2023-03-01T10:40:54;94005.75;;;-1.03;100.00
51829;BME280;37881;48.024;8.774;2023-03-01T10:43:25;93999.19;;;-0.05;100.00
51829;BME280;37881;48.024;8.774;2023-03-01T10:45:53;93993.75;;;0.55;97.85
51829;BME280;37881;48.024;8.774;2023-03-01T10:48:22;93984.75;;;1.03;93.87
51829;BME280;37881;48.024;8.774;2023-03-01T10:51:06;93989.00;;;0.68;94.38
51829;BME280;37881;48.024;8.774;2023-03-01T10:53:38;93992.84;;;0.83;93.32
51829;BME280;37881;48.024;8.774;2023-03-01T10:56:12;93982.00;;;0.99;92.89
51829;BME280;37881;48.024;8.774;2023-03-01T10:59:00;93985.44;;;0.80;92.45
51829;BME280;37881;48.024;8.774;2023-03-01T11:01:29;93988.53;;;0.47;97.38
51829;BME280;37881;48.024;8.774;2023-03-01T11:04:11;93978.09;;;1.16;93.86
51829;BME280;37881;48.024;8.774;2023-03-01T11:06:40;93972.22;;;1.30;89.11
51829;BME280;37881;48.024;8.774;2023-03-01T11:09:18;93963.94;;;1.03;90.01
51829;BME280;37881;48.024;8.774;2023-03-01T11:11:46;93963.81;;;0.80;92.79
51829;BME280;37881;48.024;8.774;2023-03-01T11:14:22;93970.84;;;0.49;93.12
51829;BME280;37881;48.024;8.774;2023-03-01T11:17:05;93964.91;;;0.12;97.91
51829;BME280;37881;48.024;8.774;2023-03-01T11:19:32;93960.31;;;1.73;88.74
51829;BME280;37881;48.024;8.774;2023-03-01T11:22:03;93966.53;;;0.80;87.94
51829;BME280;37881;48.024;8.774;2023-03-01T11:24:37;93962.28;;;0.98;91.46
51829;BME280;37881;48.024;8.774;2023-03-01T11:27:21;93951.72;;;1.29;88.66
51829;BME280;37881;48.024;8.774;2023-03-01T11:29:56;93952.28;;;1.38;86.20
51829;BME280;37881;48.024;8.774;2023-03-01T11:32:27;93956.13;;;1.56;85.72
51829;BME280;37881;48.024;8.774;2023-03-01T11:34:59;93949.44;;;1.50;85.10
51829;BME280;37881;48.024;8.774;2023-03-01T11:37:33;93945.25;;;1.95;83.17
51829;BME280;37881;48.024;8.774;2023-03-01T11:40:10;93942.25;;;2.00;84.22
51829;BME280;37881;48.024;8.774;2023-03-01T11:42:52;93940.47;;;2.58;79.29
51829;BME280;37881;48.024;8.774;2023-03-01T11:45:24;93960.47;;;0.35;89.38
51829;BME280;37881;48.024;8.774;2023-03-01T11:50:49;93949.75;;;1.88;82.20
51829;BME280;37881;48.024;8.774;2023-03-01T11:56:24;93945.97;;;1.50;85.16
51829;BME280;37881;48.024;8.774;2023-03-01T11:59:59;93944.19;;;1.38;86.20
51829;BME280;37881;48.024;8.774;2023-03-01T12:02:40;93944.03;;;0.25;93.79
51829;BME280;37881;48.024;8.774;2023-03-01T12:05:41;93948.56;;;0.05;94.58
51829;BME280;37881;48.024;8.774;2023-03-01T12:13:46;93927.75;;;2.89;77.70
51829;BME280;37881;48.024;8.774;2023-03-01T12:38:49;93891.09;;;2.42;79.37
51829;BME280;37881;48.024;8.774;2023-03-01T12:44:34;93870.91;;;1.66;85.43
51829;BME280;37881;48.024;8.774;2023-03-01T12:47:14;93861.47;;;2.83;77.13
51829;BME280;37881;48.024;8.774;2023-03-01T12:49:51;93866.03;;;1.98;77.63
51829;BME280;37881;48.024;8.774;2023-03-01T12:52:39;93848.44;;;2.65;76.74
51829;BME280;37881;48.024;8.774;2023-03-01T12:55:21;93851.53;;;3.28;73.92
51829;BME280;37881;48.024;8.774;2023-03-01T13:00:39;93855.28;;;2.82;74.21
51829;BME280;37881;48.024;8.774;2023-03-01T13:03:19;93854.44;;;3.42;71.94
51829;BME280;37881;48.024;8.774;2023-03-01T13:06:00;93855.38;;;3.23;73.28
51829;BME280;37881;48.024;8.774;2023-03-01T13:09:04;93852.63;;;2.89;73.99
51829;BME280;37881;48.024;8.774;2023-03-01T13:11:34;93852.16;;;2.80;75.76
51829;BME280;37881;48.024;8.774;2023-03-01T13:16:50;93865.47;;;1.86;78.19
51829;BME280;37881;48.024;8.774;2023-03-01T13:19:22;93872.81;;;1.43;82.35
51829;BME280;37881;48.024;8.774;2023-03-01T13:21:51;93871.47;;;2.25;78.91
51829;BME280;37881;48.024;8.774;2023-03-01T13:24:37;93874.19;;;0.94;84.42
51829;BME280;37881;48.024;8.774;2023-03-01T13:27:10;93863.22;;;1.68;81.91
51829;BME280;37881;48.024;8.774;2023-03-01T13:29:48;93873.34;;;0.90;87.63
51829;BME280;37881;48.024;8.774;2023-03-01T13:37:46;93873.19;;;1.41;86.05
51829;BME280;37881;48.024;8.774;2023-03-01T13:42:45;93869.50;;;1.53;83.20
51829;BME280;37881;48.024;8.774;2023-03-01T13:45:38;93872.22;;;1.53;84.58
51829;BME280;37881;48.024;8.774;2023-03-01T13:48:11;93856.88;;;2.07;81.65
51829;BME280;37881;48.024;8.774;2023-03-01T13:50:51;93860.34;;;1.80;83.45
51829;BME280;37881;48.024;8.774;2023-03-01T13:53:23;93871.81;;;2.20;80.49
51829;BME280;37881;48.024;8.774;2023-03-01T13:55:56;93865.94;;;1.91;81.44
51829;BME280;37881;48.024;8.774;2023-03-01T13:58:28;93854.84;;;2.50;78.92
51829;BME280;37881;48.024;8.774;2023-03-01T14:01:18;93855.81;;;2.65;76.73
51829;BME280;37881;48.024;8.774;2023-03-01T14:03:47;93855.44;;;2.96;75.55
51829;BME280;37881;48.024;8.774;2023-03-01T14:06:16;93865.44;;;2.09;80.12
51829;BME280;37881;48.024;8.774;2023-03-01T14:08:48;93864.59;;;2.05;80.45
51829;BME280;37881;48.024;8.774;2023-03-01T14:14:14;93860.50;;;1.68;82.07
51829;BME280;37881;48.024;8.774;2023-03-01T14:17:04;93864.19;;;1.79;83.06
51829;BME280;37881;48.024;8.774;2023-03-01T14:19:35;93862.22;;;1.57;83.05
51829;BME280;37881;48.024;8.774;2023-03-01T14:24:52;93864.78;;;1.92;82.39